sensor_id;sensor_type;location;lat;lon;timestamp;P1;durP1;ratioP1;P2;durP2;ratioP2
5650;SDS011;40241;52.684;9.758;2023-02-01T00:01:46;17.77;;;2.17;;
5650;SDS011;40241;52.684;9.758;2023-02-01T00:04:11;7.80;;;1.93;;
5650;SDS011;40241;52.684;9.758;2023-02-01T00:06:37;12.47;;;2.20;;
5650;SDS011;40241;52.684;9.758;2023-02-01T00:09:03;8.40;;;1.90;;
5650;SDS011;40241;52.684;9.758;2023-02-01T00:11:29;14.60;;;2.13;;
5650;SDS011;40241;52.684;9.758;2023-02-01T00:13:54;8.10;;;1.70;;
5650;SDS011;40241;52.684;9.758;2023-02-01T00:16:21;6.40;;;1.90;;
5650;SDS011;40241;52.684;9.758;2023-02-01T00:18:48;6.80;;;1.53;;
5650;SDS011;40241;52.684;9.758;2023-02-01T00:21:16;4.10;;;1.50;;
5650;SDS011;40241;52.684;9.758;2023-02-01T00:23:45;10.63;;;1.80;;
5650;SDS011;40241;52.684;9.758;2023-02-01T00:26:14;6.83;;;1.80;;
5650;SDS011;40241;52.684;9.758;2023-02-01T00:28:42;3.47;;;1.63;;
5650;SDS011;40241;52.684;9.758;2023-02-01T00:31:07;13.50;;;1.43;;
5650;SDS011;40241;52.684;9.758;2023-02-01T00:33:33;13.17;;;2.33;;
5650;SDS011;40241;52.684;9.758;2023-02-01T00:36:03;11.13;;;2.83;;
5650;SDS011;40241;52.684;9.758;2023-02-01T00:38:30;13.23;;;2.20;;
5650;SDS011;40241;52.684;9.758;2023-02-01T00:41:06;12.40;;;2.80;;
5650;SDS011;40241;52.684;9.758;2023-02-01T00:43:40;17.50;;;2.57;;
5650;SDS011;40241;52.684;9.758;2023-02-01T00:46:05;7.07;;;2.07;;
5650;SDS011;40241;52.684;9.758;2023-02-01T00:48:31;12.40;;;2.17;;
5650;SDS011;40241;52.684;9.758;2023-02-01T00:51:00;12.07;;;2.60;;
5650;SDS011;40241;52.684;9.758;2023-02-01T00:53:26;12.60;;;2.13;;
5650;SDS011;40241;52.684;9.758;2023-02-01T00:55:52;12.70;;;2.30;;
5650;SDS011;40241;52.684;9.758;2023-02-01T00:58:17;10.10;;;2.63;;
5650;SDS011;40241;52.684;9.758;2023-02-01T01:00:43;13.67;;;2.47;;
5650;SDS011;40241;52.684;9.758;2023-02-01T01:03:08;5.40;;;1.53;;
5650;SDS011;40241;52.684;9.758;2023-02-01T01:05:46;11.73;;;2.13;;
5650;SDS011;40241;52.684;9.758;2023-02-01T01:08:13;7.67;;;1.57;;
5650;SDS011;40241;52.684;9.758;2023-02-01T01:10:38;8.60;;;1.73;;
5650;SDS011;40241;52.684;9.758;2023-02-01T01:13:04;10.33;;;2.20;;
5650;SDS011;40241;52.684;9.758;2023-02-01T01:15:29;10.50;;;1.90;;
5650;SDS011;40241;52.684;9.758;2023-02-01T01:17:55;7.33;;;1.40;;
5650;SDS011;40241;52.684;9.758;2023-02-01T01:20:20;13.17;;;2.20;;
5650;SDS011;40241;52.684;9.758;2023-02-01T01:22:46;15.80;;;2.40;;
5650;SDS011;40241;52.684;9.758;2023-02-01T01:25:13;7.03;;;2.10;;
5650;SDS011;40241;52.684;9.758;2023-02-01T01:27:38;14.63;;;1.73;;
5650;SDS011;40241;52.684;9.758;2023-02-01T01:30:04;14.37;;;2.60;;
5650;SDS011;40241;52.684;9.758;2023-02-01T01:32:30;10.50;;;2.33;;
5650;SDS011;40241;52.684;9.758;2023-02-01T01:34:55;9.87;;;1.77;;
5650;SDS011;40241;52.684;9.758;2023-02-01T01:37:20;10.13;;;2.07;;
5650;SDS011;40241;52.684;9.758;2023-02-01T01:39:46;6.70;;;1.80;;
5650;SDS011;40241;52.684;9.758;2023-02-01T01:42:11;13.63;;;2.07;;
5650;SDS011;40241;52.684;9.758;2023-02-01T01:44:58;10.73;;;2.37;;
5650;SDS011;40241;52.684;9.758;2023-02-01T01:47:26;7.53;;;1.60;;
5650;SDS011;40241;52.684;9.758;2023-02-01T01:49:56;7.37;;;2.03;;
5650;SDS011;40241;52.684;9.758;2023-02-01T01:52:21;18.80;;;3.90;;
5650;SDS011;40241;52.684;9.758;2023-02-01T01:54:48;8.63;;;2.20;;
5650;SDS011;40241;52.684;9.758;2023-02-01T01:57:19;18.27;;;2.80;;
5650;SDS011;40241;52.684;9.758;2023-02-01T02:00:11;9.17;;;1.50;;
5650;SDS011;40241;52.684;9.758;2023-02-01T02:02:39;8.70;;;1.60;;
5650;SDS011;40241;52.684;9.758;2023-02-01T02:05:06;9.33;;;1.67;;
5650;SDS011;40241;52.684;9.758;2023-02-01T02:07:34;13.43;;;2.10;;
5650;SDS011;40241;52.684;9.758;2023-02-01T02:10:06;12.23;;;2.67;;
5650;SDS011;40241;52.684;9.758;2023-02-01T02:12:37;8.00;;;1.83;;
5650;SDS011;40241;52.684;9.758;2023-02-01T02:15:04;10.57;;;2.07;;
5650;SDS011;40241;52.684;9.758;2023-02-01T02:29:07;12.00;;;2.13;;
5650;SDS011;40241;52.684;9.758;2023-02-01T02:45:12;10.90;;;1.60;;
5650;SDS011;40241;52.684;9.758;2023-02-01T02:49:00;12.17;;;2.20;;
5650;SDS011;40241;52.684;9.758;2023-02-01T02:51:21;6.63;;;2.00;;
5650;SDS011;40241;52.684;9.758;2023-02-01T02:54:16;13.70;;;1.83;;
5650;SDS011;40241;52.684;9.758;2023-02-01T02:57:05;21.13;;;2.70;;
5650;SDS011;40241;52.684;9.758;2023-02-01T02:59:52;8.00;;;1.93;;
5650;SDS011;40241;52.684;9.758;2023-02-01T03:02:38;13.10;;;2.13;;
5650;SDS011;40241;52.684;9.758;2023-02-01T03:05:23;7.37;;;1.77;;
5650;SDS011;40241;52.684;9.758;2023-02-01T03:13:18;6.60;;;1.90;;
5650;SDS011;40241;52.684;9.758;2023-02-01T03:15:56;7.47;;;1.97;;
5650;SDS011;40241;52.684;9.758;2023-02-01T03:18:28;11.30;;;2.50;;
5650;SDS011;40241;52.684;9.758;2023-02-01T03:21:20;11.20;;;2.40;;
5650;SDS011;40241;52.684;9.758;2023-02-01T03:23:49;6.77;;;1.90;;
5650;SDS011;40241;52.684;9.758;2023-02-01T03:26:16;9.30;;;1.70;;
5650;SDS011;40241;52.684;9.758;2023-02-01T03:28:45;7.97;;;2.00;;
5650;SDS011;40241;52.684;9.758;2023-02-01T03:31:19;8.03;;;1.70;;
5650;SDS011;40241;52.684;9.758;2023-02-01T03:33:45;10.07;;;2.93;;
5650;SDS011;40241;52.684;9.758;2023-02-01T03:41:42;4.47;;;1.47;;
5650;SDS011;40241;52.684;9.758;2023-02-01T03:44:17;12.93;;;2.70;;
5650;SDS011;40241;52.684;9.758;2023-02-01T03:46:49;9.40;;;2.13;;
5650;SDS011;40241;52.684;9.758;2023-02-01T03:49:38;12.20;;;2.00;;
5650;SDS011;40241;52.684;9.758;2023-02-01T03:52:09;9.70;;;2.10;;
5650;SDS011;40241;52.684;9.758;2023-02-01T03:54:38;6.80;;;1.90;;
5650;SDS011;40241;52.684;9.758;2023-02-01T03:57:05;9.23;;;2.60;;
5650;SDS011;40241;52.684;9.758;2023-02-01T03:59:37;7.60;;;1.97;;
5650;SDS011;40241;52.684;9.758;2023-02-01T04:02:04;8.07;;;2.40;;
5650;SDS011;40241;52.684;9.758;2023-02-01T04:04:30;10.53;;;2.63;;
5650;SDS011;40241;52.684;9.758;2023-02-01T04:06:55;17.27;;;2.20;;
5650;SDS011;40241;52.684;9.758;2023-02-01T04:09:21;10.47;;;2.17;;
5650;SDS011;40241;52.684;9.758;2023-02-01T04:11:46;11.50;;;1.57;;
5650;SDS011;40241;52.684;9.758;2023-02-01T04:14:12;15.47;;;1.60;;
5650;SDS011;40241;52.684;9.758;2023-02-01T04:16:37;4.37;;;1.60;;
5650;SDS011;40241;52.684;9.758;2023-02-01T04:19:02;5.47;;;1.80;;
5650;SDS011;40241;52.684;9.758;2023-02-01T04:21:28;9.63;;;1.90;;
5650;SDS011;40241;52.684;9.758;2023-02-01T04:23:53;6.83;;;1.60;;
5650;SDS011;40241;52.684;9.758;2023-02-01T04:26:19;10.90;;;3.00;;
5650;SDS011;40241;52.684;9.758;2023-02-01T04:28:45;5.70;;;1.67;;
5650;SDS011;40241;52.684;9.758;2023-02-01T04:31:13;12.37;;;2.73;;
5650;SDS011;40241;52.684;9.758;2023-02-01T04:33:39;5.97;;;2.03;;
5650;SDS011;40241;52.684;9.758;2023-02-01T04:36:04;15.23;;;2.37;;
5650;SDS011;40241;52.684;9.758;2023-02-01T04:38:30;9.90;;;1.97;;
5650;SDS011;40241;52.684;9.758;2023-02-01T04:40:57;10.33;;;2.07;;
5650;SDS011;40241;52.684;9.758;2023-02-01T04:43:22;6.60;;;2.20;;
5650;SDS011;40241;52.684;9.758;2023-02-01T04:45:48;8.20;;;2.13;;
5650;SDS011;40241;52.684;9.758;2023-02-01T04:48:14;9.27;;;1.57;;
5650;SDS011;40241;52.684;9.758;2023-02-01T04:50:40;8.07;;;2.00;;
5650;SDS011;40241;52.684;9.758;2023-02-01T04:53:06;11.90;;;1.90;;
5650;SDS011;40241;52.684;9.758;2023-02-01T04:55:31;8.10;;;1.70;;
5650;SDS011;40241;52.684;9.758;2023-02-01T04:57:57;8.20;;;1.50;;
5650;SDS011;40241;52.684;9.758;2023-02-01T05:00:22;7.80;;;2.40;;
5650;SDS011;40241;52.684;9.758;2023-02-01T05:02:47;8.77;;;2.20;;
5650;SDS011;40241;52.684;9.758;2023-02-01T05:05:13;4.70;;;1.70;;
5650;SDS011;40241;52.684;9.758;2023-02-01T05:07:38;10.03;;;2.30;;
5650;SDS011;40241;52.684;9.758;2023-02-01T05:10:03;9.27;;;2.20;;
5650;SDS011;40241;52.684;9.758;2023-02-01T05:12:29;8.80;;;2.57;;
5650;SDS011;40241;52.684;9.758;2023-02-01T05:15:13;5.97;;;1.70;;
5650;SDS011;40241;52.684;9.758;2023-02-01T05:17:38;7.93;;;2.30;;
5650;SDS011;40241;52.684;9.758;2023-02-01T05:20:07;7.17;;;1.83;;
5650;SDS011;40241;52.684;9.758;2023-02-01T05:22:33;12.33;;;2.37;;
5650;SDS011;40241;52.684;9.758;2023-02-01T05:24:58;8.27;;;1.73;;
5650;SDS011;40241;52.684;9.758;2023-02-01T05:27:24;6.13;;;2.10;;
5650;SDS011;40241;52.684;9.758;2023-02-01T05:29:49;7.50;;;1.87;;
5650;SDS011;40241;52.684;9.758;2023-02-01T05:32:14;4.73;;;2.10;;
5650;SDS011;40241;52.684;9.758;2023-02-01T05:34:40;6.87;;;1.47;;
5650;SDS011;40241;52.684;9.758;2023-02-01T05:37:05;6.90;;;1.90;;
5650;SDS011;40241;52.684;9.758;2023-02-01T05:39:31;7.77;;;1.60;;
5650;SDS011;40241;52.684;9.758;2023-02-01T05:41:56;9.93;;;2.00;;
5650;SDS011;40241;52.684;9.758;2023-02-01T05:44:21;7.17;;;1.80;;
5650;SDS011;40241;52.684;9.758;2023-02-01T05:46:47;8.87;;;1.90;;
5650;SDS011;40241;52.684;9.758;2023-02-01T05:49:12;7.47;;;2.37;;
5650;SDS011;40241;52.684;9.758;2023-02-01T05:51:37;6.00;;;1.77;;
5650;SDS011;40241;52.684;9.758;2023-02-01T05:54:03;4.80;;;1.80;;
5650;SDS011;40241;52.684;9.758;2023-02-01T05:56:28;11.10;;;2.40;;
5650;SDS011;40241;52.684;9.758;2023-02-01T05:58:53;6.23;;;1.80;;
5650;SDS011;40241;52.684;9.758;2023-02-01T06:01:19;10.40;;;2.43;;
5650;SDS011;40241;52.684;9.758;2023-02-01T06:03:44;5.70;;;1.73;;
5650;SDS011;40241;52.684;9.758;2023-02-01T06:06:10;11.20;;;3.17;;
5650;SDS011;40241;52.684;9.758;2023-02-01T06:08:35;7.00;;;2.50;;
5650;SDS011;40241;52.684;9.758;2023-02-01T06:11:01;7.00;;;2.00;;
5650;SDS011;40241;52.684;9.758;2023-02-01T06:13:28;6.57;;;2.13;;
5650;SDS011;40241;52.684;9.758;2023-02-01T06:15:54;7.23;;;1.97;;
5650;SDS011;40241;52.684;9.758;2023-02-01T06:18:20;12.77;;;1.87;;
5650;SDS011;40241;52.684;9.758;2023-02-01T06:20:51;5.83;;;2.20;;
5650;SDS011;40241;52.684;9.758;2023-02-01T06:23:18;5.77;;;1.73;;
5650;SDS011;40241;52.684;9.758;2023-02-01T06:25:43;8.33;;;1.37;;
5650;SDS011;40241;52.684;9.758;2023-02-01T06:28:10;2.57;;;1.20;;
5650;SDS011;40241;52.684;9.758;2023-02-01T06:30:35;3.33;;;1.03;;
5650;SDS011;40241;52.684;9.758;2023-02-01T06:33:00;4.17;;;1.07;;
5650;SDS011;40241;52.684;9.758;2023-02-01T06:35:26;2.40;;;1.10;;
5650;SDS011;40241;52.684;9.758;2023-02-01T06:37:51;3.90;;;1.27;;
5650;SDS011;40241;52.684;9.758;2023-02-01T06:40:17;3.97;;;1.50;;
5650;SDS011;40241;52.684;9.758;2023-02-01T06:42:42;2.30;;;1.30;;
5650;SDS011;40241;52.684;9.758;2023-02-01T06:45:07;5.77;;;2.10;;
5650;SDS011;40241;52.684;9.758;2023-02-01T06:47:33;3.73;;;1.50;;
5650;SDS011;40241;52.684;9.758;2023-02-01T06:49:59;9.50;;;1.73;;
5650;SDS011;40241;52.684;9.758;2023-02-01T06:52:24;8.33;;;2.53;;
5650;SDS011;40241;52.684;9.758;2023-02-01T06:54:49;2.40;;;1.50;;
5650;SDS011;40241;52.684;9.758;2023-02-01T06:57:15;6.23;;;1.70;;
5650;SDS011;40241;52.684;9.758;2023-02-01T06:59:40;4.47;;;1.77;;
5650;SDS011;40241;52.684;9.758;2023-02-01T07:02:08;7.93;;;2.07;;
5650;SDS011;40241;52.684;9.758;2023-02-01T07:04:35;7.37;;;2.00;;
5650;SDS011;40241;52.684;9.758;2023-02-01T07:07:01;6.20;;;2.20;;
5650;SDS011;40241;52.684;9.758;2023-02-01T07:09:26;4.03;;;2.20;;
5650;SDS011;40241;52.684;9.758;2023-02-01T07:11:51;5.80;;;1.93;;
5650;SDS011;40241;52.684;9.758;2023-02-01T07:14:17;10.40;;;2.37;;
5650;SDS011;40241;52.684;9.758;2023-02-01T07:16:42;6.10;;;1.93;;
5650;SDS011;40241;52.684;9.758;2023-02-01T07:19:07;7.47;;;2.13;;
5650;SDS011;40241;52.684;9.758;2023-02-01T07:21:33;9.10;;;3.00;;
5650;SDS011;40241;52.684;9.758;2023-02-01T07:23:58;6.70;;;1.83;;
5650;SDS011;40241;52.684;9.758;2023-02-01T07:26:24;8.40;;;1.80;;
5650;SDS011;40241;52.684;9.758;2023-02-01T07:28:49;5.57;;;2.07;;
5650;SDS011;40241;52.684;9.758;2023-02-01T07:31:15;5.83;;;3.03;;
5650;SDS011;40241;52.684;9.758;2023-02-01T07:33:47;10.43;;;3.10;;
5650;SDS011;40241;52.684;9.758;2023-02-01T07:36:14;5.10;;;2.07;;
5650;SDS011;40241;52.684;9.758;2023-02-01T07:38:40;7.20;;;1.93;;
5650;SDS011;40241;52.684;9.758;2023-02-01T07:41:06;8.13;;;2.83;;
5650;SDS011;40241;52.684;9.758;2023-02-01T07:43:33;5.00;;;2.80;;
5650;SDS011;40241;52.684;9.758;2023-02-01T07:45:59;6.67;;;2.63;;
5650;SDS011;40241;52.684;9.758;2023-02-01T07:48:25;9.20;;;3.03;;
5650;SDS011;40241;52.684;9.758;2023-02-01T07:51:01;7.13;;;2.57;;
5650;SDS011;40241;52.684;9.758;2023-02-01T07:53:31;6.80;;;2.13;;
5650;SDS011;40241;52.684;9.758;2023-02-01T07:55:58;3.90;;;2.60;;
5650;SDS011;40241;52.684;9.758;2023-02-01T07:58:24;3.30;;;1.73;;
5650;SDS011;40241;52.684;9.758;2023-02-01T08:00:50;5.63;;;2.03;;
5650;SDS011;40241;52.684;9.758;2023-02-01T08:03:34;4.90;;;2.10;;
5650;SDS011;40241;52.684;9.758;2023-02-01T08:06:00;3.93;;;1.63;;
5650;SDS011;40241;52.684;9.758;2023-02-01T08:08:25;4.73;;;2.10;;
5650;SDS011;40241;52.684;9.758;2023-02-01T08:10:51;6.33;;;2.67;;
5650;SDS011;40241;52.684;9.758;2023-02-01T08:13:16;3.80;;;1.80;;
5650;SDS011;40241;52.684;9.758;2023-02-01T08:15:41;3.33;;;1.70;;
5650;SDS011;40241;52.684;9.758;2023-02-01T08:18:07;4.47;;;1.90;;
5650;SDS011;40241;52.684;9.758;2023-02-01T08:20:33;1.60;;;1.23;;
5650;SDS011;40241;52.684;9.758;2023-02-01T08:23:00;5.57;;;2.33;;
5650;SDS011;40241;52.684;9.758;2023-02-01T08:25:26;6.57;;;3.50;;
5650;SDS011;40241;52.684;9.758;2023-02-01T08:27:52;3.07;;;2.47;;
5650;SDS011;40241;52.684;9.758;2023-02-01T08:30:19;5.33;;;1.83;;
5650;SDS011;40241;52.684;9.758;2023-02-01T08:32:45;4.10;;;1.60;;
5650;SDS011;40241;52.684;9.758;2023-02-01T08:35:10;3.60;;;1.20;;
5650;SDS011;40241;52.684;9.758;2023-02-01T08:37:36;3.17;;;1.13;;
5650;SDS011;40241;52.684;9.758;2023-02-01T08:40:01;10.30;;;1.77;;
5650;SDS011;40241;52.684;9.758;2023-02-01T08:42:28;4.90;;;1.73;;
5650;SDS011;40241;52.684;9.758;2023-02-01T08:45:12;5.03;;;2.07;;
5650;SDS011;40241;52.684;9.758;2023-02-01T08:47:38;8.13;;;2.47;;
5650;SDS011;40241;52.684;9.758;2023-02-01T08:50:04;5.30;;;1.63;;
5650;SDS011;40241;52.684;9.758;2023-02-01T08:52:29;7.60;;;1.90;;
5650;SDS011;40241;52.684;9.758;2023-02-01T08:54:55;6.80;;;1.50;;
5650;SDS011;40241;52.684;9.758;2023-02-01T08:57:20;6.90;;;1.67;;
5650;SDS011;40241;52.684;9.758;2023-02-01T08:59:45;10.80;;;2.43;;
5650;SDS011;40241;52.684;9.758;2023-02-01T09:02:11;4.97;;;1.50;;
5650;SDS011;40241;52.684;9.758;2023-02-01T09:04:38;11.37;;;1.90;;
5650;SDS011;40241;52.684;9.758;2023-02-01T09:07:03;9.00;;;1.87;;
5650;SDS011;40241;52.684;9.758;2023-02-01T09:09:29;5.90;;;1.73;;
5650;SDS011;40241;52.684;9.758;2023-02-01T09:11:54;6.03;;;1.57;;
5650;SDS011;40241;52.684;9.758;2023-02-01T09:14:19;5.43;;;1.20;;
5650;SDS011;40241;52.684;9.758;2023-02-01T09:16:45;5.80;;;2.00;;
5650;SDS011;40241;52.684;9.758;2023-02-01T09:19:10;10.93;;;2.60;;
5650;SDS011;40241;52.684;9.758;2023-02-01T09:21:35;5.60;;;2.00;;
5650;SDS011;40241;52.684;9.758;2023-02-01T09:24:01;7.10;;;2.00;;
5650;SDS011;40241;52.684;9.758;2023-02-01T09:26:26;8.07;;;1.50;;
5650;SDS011;40241;52.684;9.758;2023-02-01T09:28:52;9.80;;;2.57;;
5650;SDS011;40241;52.684;9.758;2023-02-01T09:31:18;10.33;;;2.53;;
5650;SDS011;40241;52.684;9.758;2023-02-01T09:33:44;6.17;;;1.70;;
5650;SDS011;40241;52.684;9.758;2023-02-01T09:36:09;10.30;;;2.53;;
5650;SDS011;40241;52.684;9.758;2023-02-01T09:38:35;12.57;;;1.97;;
5650;SDS011;40241;52.684;9.758;2023-02-01T09:41:00;8.07;;;2.10;;
5650;SDS011;40241;52.684;9.758;2023-02-01T09:46:31;6.20;;;2.60;;
5650;SDS011;40241;52.684;9.758;2023-02-01T09:49:00;5.60;;;2.37;;
5650;SDS011;40241;52.684;9.758;2023-02-01T09:51:40;9.53;;;2.33;;
5650;SDS011;40241;52.684;9.758;2023-02-01T09:54:09;5.87;;;2.17;;
5650;SDS011;40241;52.684;9.758;2023-02-01T09:56:47;6.70;;;2.73;;
5650;SDS011;40241;52.684;9.758;2023-02-01T09:59:26;9.37;;;1.80;;
5650;SDS011;40241;52.684;9.758;2023-02-01T10:02:00;8.63;;;2.23;;
5650;SDS011;40241;52.684;9.758;2023-02-01T10:04:28;7.13;;;1.77;;
5650;SDS011;40241;52.684;9.758;2023-02-01T10:15:35;5.43;;;2.60;;
5650;SDS011;40241;52.684;9.758;2023-02-01T10:18:20;10.20;;;2.20;;
5650;SDS011;40241;52.684;9.758;2023-02-01T10:26:19;14.23;;;2.73;;
5650;SDS011;40241;52.684;9.758;2023-02-01T10:28:50;7.60;;;1.80;;
5650;SDS011;40241;52.684;9.758;2023-02-01T10:31:28;11.17;;;2.20;;
5650;SDS011;40241;52.684;9.758;2023-02-01T10:33:57;4.63;;;1.40;;
5650;SDS011;40241;52.684;9.758;2023-02-01T10:36:28;8.00;;;2.20;;
5650;SDS011;40241;52.684;9.758;2023-02-01T10:39:00;10.70;;;1.73;;
5650;SDS011;40241;52.684;9.758;2023-02-01T10:41:31;9.50;;;1.50;;
5650;SDS011;40241;52.684;9.758;2023-02-01T10:43:59;9.17;;;1.83;;
5650;SDS011;40241;52.684;9.758;2023-02-01T10:46:29;7.83;;;2.00;;
5650;SDS011;40241;52.684;9.758;2023-02-01T10:48:56;3.80;;;1.33;;
5650;SDS011;40241;52.684;9.758;2023-02-01T10:54:18;4.10;;;2.00;;
5650;SDS011;40241;52.684;9.758;2023-02-01T10:56:46;8.97;;;2.03;;
5650;SDS011;40241;52.684;9.758;2023-02-01T10:59:19;4.53;;;1.90;;
5650;SDS011;40241;52.684;9.758;2023-02-01T11:01:49;12.37;;;2.47;;
5650;SDS011;40241;52.684;9.758;2023-02-01T11:04:16;7.73;;;1.50;;
5650;SDS011;40241;52.684;9.758;2023-02-01T11:06:45;9.97;;;1.93;;
5650;SDS011;40241;52.684;9.758;2023-02-01T11:09:16;9.33;;;1.80;;
5650;SDS011;40241;52.684;9.758;2023-02-01T11:14:15;4.30;;;1.70;;
5650;SDS011;40241;52.684;9.758;2023-02-01T11:16:40;6.60;;;1.20;;
5650;SDS011;40241;52.684;9.758;2023-02-01T11:19:14;8.17;;;1.50;;
5650;SDS011;40241;52.684;9.758;2023-02-01T11:21:41;2.63;;;1.10;;
5650;SDS011;40241;52.684;9.758;2023-02-01T11:24:11;7.37;;;1.80;;
5650;SDS011;40241;52.684;9.758;2023-02-01T11:27:03;2.83;;;1.30;;
5650;SDS011;40241;52.684;9.758;2023-02-01T11:29:41;8.13;;;1.67;;
5650;SDS011;40241;52.684;9.758;2023-02-01T11:32:11;5.87;;;1.60;;
5650;SDS011;40241;52.684;9.758;2023-02-01T11:34:43;8.83;;;1.60;;
5650;SDS011;40241;52.684;9.758;2023-02-01T11:37:25;4.63;;;1.00;;
5650;SDS011;40241;52.684;9.758;2023-02-01T11:39:55;6.77;;;2.07;;
5650;SDS011;40241;52.684;9.758;2023-02-01T11:42:25;4.57;;;1.50;;
5650;SDS011;40241;52.684;9.758;2023-02-01T11:45:07;3.37;;;1.10;;
5650;SDS011;40241;52.684;9.758;2023-02-01T11:47:44;9.20;;;1.60;;
5650;SDS011;40241;52.684;9.758;2023-02-01T11:50:46;7.50;;;1.23;;
5650;SDS011;40241;52.684;9.758;2023-02-01T12:06:15;5.47;;;1.67;;
5650;SDS011;40241;52.684;9.758;2023-02-01T12:09:04;6.17;;;1.97;;
5650;SDS011;40241;52.684;9.758;2023-02-01T12:11:36;5.33;;;1.40;;
5650;SDS011;40241;52.684;9.758;2023-02-01T12:22:50;8.10;;;1.50;;
5650;SDS011;40241;52.684;9.758;2023-02-01T12:33:52;2.70;;;1.20;;
5650;SDS011;40241;52.684;9.758;2023-02-01T12:36:25;7.00;;;1.37;;
5650;SDS011;40241;52.684;9.758;2023-02-01T12:42:00;6.73;;;1.70;;
5650;SDS011;40241;52.684;9.758;2023-02-01T12:44:27;5.80;;;1.90;;
5650;SDS011;40241;52.684;9.758;2023-02-01T12:52:14;4.33;;;1.23;;
5650;SDS011;40241;52.684;9.758;2023-02-01T12:54:49;2.70;;;1.13;;
5650;SDS011;40241;52.684;9.758;2023-02-01T12:57:27;6.53;;;1.47;;
5650;SDS011;40241;52.684;9.758;2023-02-01T13:02:42;7.80;;;1.27;;
5650;SDS011;40241;52.684;9.758;2023-02-01T13:05:29;2.23;;;1.23;;
5650;SDS011;40241;52.684;9.758;2023-02-01T13:08:06;4.37;;;0.90;;
5650;SDS011;40241;52.684;9.758;2023-02-01T13:10:38;2.20;;;0.97;;
5650;SDS011;40241;52.684;9.758;2023-02-01T13:18:41;1.23;;;0.50;;
5650;SDS011;40241;52.684;9.758;2023-02-01T13:21:15;1.30;;;0.50;;
5650;SDS011;40241;52.684;9.758;2023-02-01T13:23:45;0.50;;;0.50;;
5650;SDS011;40241;52.684;9.758;2023-02-01T13:26:13;0.50;;;0.50;;
5650;SDS011;40241;52.684;9.758;2023-02-01T13:28:46;0.70;;;0.63;;
5650;SDS011;40241;52.684;9.758;2023-02-01T13:41:52;0.60;;;0.60;;
5650;SDS011;40241;52.684;9.758;2023-02-01T13:44:44;1.43;;;0.40;;
5650;SDS011;40241;52.684;9.758;2023-02-01T13:50:02;0.60;;;0.53;;
5650;SDS011;40241;52.684;9.758;2023-02-01T13:52:39;1.10;;;0.67;;
5650;SDS011;40241;52.684;9.758;2023-02-01T13:57:46;0.70;;;0.40;;
5650;SDS011;40241;52.684;9.758;2023-02-01T14:03:00;0.53;;;0.43;;
5650;SDS011;40241;52.684;9.758;2023-02-01T14:08:14;0.90;;;0.40;;
5650;SDS011;40241;52.684;9.758;2023-02-01T14:13:29;3.90;;;0.70;;
5650;SDS011;40241;52.684;9.758;2023-02-01T14:29:18;1.17;;;0.50;;
5650;SDS011;40241;52.684;9.758;2023-02-01T14:39:55;1.00;;;0.50;;
5650;SDS011;40241;52.684;9.758;2023-02-01T14:42:26;2.30;;;0.40;;
5650;SDS011;40241;52.684;9.758;2023-02-01T14:44:53;1.63;;;0.83;;
5650;SDS011;40241;52.684;9.758;2023-02-01T14:49:52;4.20;;;0.70;;
5650;SDS011;40241;52.684;9.758;2023-02-01T14:52:35;3.70;;;0.70;;
5650;SDS011;40241;52.684;9.758;2023-02-01T14:55:10;2.00;;;0.70;;
5650;SDS011;40241;52.684;9.758;2023-02-01T14:57:57;3.83;;;0.70;;
5650;SDS011;40241;52.684;9.758;2023-02-01T15:00:27;2.70;;;0.70;;
5650;SDS011;40241;52.684;9.758;2023-02-01T15:02:56;4.57;;;0.90;;
5650;SDS011;40241;52.684;9.758;2023-02-01T15:05:45;1.03;;;0.67;;
5650;SDS011;40241;52.684;9.758;2023-02-01T15:08:16;2.20;;;1.03;;
5650;SDS011;40241;52.684;9.758;2023-02-01T15:10:47;2.90;;;1.17;;
5650;SDS011;40241;52.684;9.758;2023-02-01T15:13:22;2.30;;;0.83;;
5650;SDS011;40241;52.684;9.758;2023-02-01T15:15:59;4.30;;;0.60;;
5650;SDS011;40241;52.684;9.758;2023-02-01T15:18:36;3.50;;;0.87;;
5650;SDS011;40241;52.684;9.758;2023-02-01T15:21:03;5.40;;;0.77;;
5650;SDS011;40241;52.684;9.758;2023-02-01T15:23:30;1.57;;;0.63;;
5650;SDS011;40241;52.684;9.758;2023-02-01T15:25:56;3.17;;;0.90;;
5650;SDS011;40241;52.684;9.758;2023-02-01T15:28:22;0.93;;;0.70;;
5650;SDS011;40241;52.684;9.758;2023-02-01T15:33:28;4.57;;;0.60;;
5650;SDS011;40241;52.684;9.758;2023-02-01T15:36:11;2.67;;;0.70;;
5650;SDS011;40241;52.684;9.758;2023-02-01T15:38:42;4.37;;;0.80;;
5650;SDS011;40241;52.684;9.758;2023-02-01T15:41:18;1.63;;;0.53;;
5650;SDS011;40241;52.684;9.758;2023-02-01T15:43:47;1.80;;;0.70;;
5650;SDS011;40241;52.684;9.758;2023-02-01T15:46:16;1.93;;;0.50;;
5650;SDS011;40241;52.684;9.758;2023-02-01T15:48:46;2.17;;;0.80;;
5650;SDS011;40241;52.684;9.758;2023-02-01T15:51:17;11.00;;;1.63;;
5650;SDS011;40241;52.684;9.758;2023-02-01T15:53:45;6.27;;;0.90;;
5650;SDS011;40241;52.684;9.758;2023-02-01T15:56:13;2.93;;;1.00;;
5650;SDS011;40241;52.684;9.758;2023-02-01T15:58:40;2.73;;;0.90;;
5650;SDS011;40241;52.684;9.758;2023-02-01T16:01:10;2.43;;;1.00;;
5650;SDS011;40241;52.684;9.758;2023-02-01T16:03:40;1.27;;;0.80;;
5650;SDS011;40241;52.684;9.758;2023-02-01T16:06:08;1.70;;;0.70;;
5650;SDS011;40241;52.684;9.758;2023-02-01T16:08:53;3.30;;;0.80;;
5650;SDS011;40241;52.684;9.758;2023-02-01T16:11:31;3.70;;;0.60;;
5650;SDS011;40241;52.684;9.758;2023-02-01T16:14:04;4.20;;;0.90;;
5650;SDS011;40241;52.684;9.758;2023-02-01T16:16:30;6.20;;;1.10;;
5650;SDS011;40241;52.684;9.758;2023-02-01T16:18:55;2.63;;;1.23;;
5650;SDS011;40241;52.684;9.758;2023-02-01T16:21:20;3.33;;;0.97;;
5650;SDS011;40241;52.684;9.758;2023-02-01T16:23:49;8.23;;;0.90;;
5650;SDS011;40241;52.684;9.758;2023-02-01T16:26:16;4.40;;;0.80;;
5650;SDS011;40241;52.684;9.758;2023-02-01T16:28:42;3.30;;;1.00;;
5650;SDS011;40241;52.684;9.758;2023-02-01T16:31:14;2.80;;;1.10;;
5650;SDS011;40241;52.684;9.758;2023-02-01T16:33:45;5.87;;;1.20;;
5650;SDS011;40241;52.684;9.758;2023-02-01T16:36:15;10.17;;;1.10;;
5650;SDS011;40241;52.684;9.758;2023-02-01T16:38:41;7.00;;;0.87;;
5650;SDS011;40241;52.684;9.758;2023-02-01T16:41:06;3.13;;;1.50;;
5650;SDS011;40241;52.684;9.758;2023-02-01T16:43:35;8.97;;;1.10;;
5650;SDS011;40241;52.684;9.758;2023-02-01T16:46:00;4.83;;;1.07;;
5650;SDS011;40241;52.684;9.758;2023-02-01T16:48:30;7.83;;;1.33;;
5650;SDS011;40241;52.684;9.758;2023-02-01T16:51:02;6.60;;;1.30;;
5650;SDS011;40241;52.684;9.758;2023-02-01T16:53:31;20.33;;;1.93;;
5650;SDS011;40241;52.684;9.758;2023-02-01T16:55:57;3.87;;;0.87;;
5650;SDS011;40241;52.684;9.758;2023-02-01T16:58:23;6.83;;;2.00;;
5650;SDS011;40241;52.684;9.758;2023-02-01T17:00:49;5.83;;;1.20;;
5650;SDS011;40241;52.684;9.758;2023-02-01T17:03:19;5.90;;;1.80;;
5650;SDS011;40241;52.684;9.758;2023-02-01T17:05:47;14.93;;;1.77;;
5650;SDS011;40241;52.684;9.758;2023-02-01T17:08:16;3.90;;;1.10;;
5650;SDS011;40241;52.684;9.758;2023-02-01T17:10:44;7.53;;;1.50;;
5650;SDS011;40241;52.684;9.758;2023-02-01T17:13:14;5.27;;;1.87;;
5650;SDS011;40241;52.684;9.758;2023-02-01T17:15:42;3.00;;;1.07;;
5650;SDS011;40241;52.684;9.758;2023-02-01T17:18:14;4.37;;;1.17;;
5650;SDS011;40241;52.684;9.758;2023-02-01T17:20:41;5.03;;;1.40;;
5650;SDS011;40241;52.684;9.758;2023-02-01T17:23:06;3.87;;;1.03;;
5650;SDS011;40241;52.684;9.758;2023-02-01T17:25:32;4.43;;;1.60;;
5650;SDS011;40241;52.684;9.758;2023-02-01T17:27:57;4.93;;;1.37;;
5650;SDS011;40241;52.684;9.758;2023-02-01T17:30:23;3.50;;;1.13;;
5650;SDS011;40241;52.684;9.758;2023-02-01T17:32:49;2.20;;;1.20;;
5650;SDS011;40241;52.684;9.758;2023-02-01T17:35:21;2.37;;;1.00;;
5650;SDS011;40241;52.684;9.758;2023-02-01T17:37:49;5.23;;;1.07;;
5650;SDS011;40241;52.684;9.758;2023-02-01T17:40:15;2.13;;;1.20;;
5650;SDS011;40241;52.684;9.758;2023-02-01T17:42:41;2.63;;;0.67;;
5650;SDS011;40241;52.684;9.758;2023-02-01T17:45:19;3.80;;;1.03;;
5650;SDS011;40241;52.684;9.758;2023-02-01T17:47:49;1.53;;;0.87;;